Time,TemperatureF,DewpointF,PressureIn,WindDirection,WindDirectionDegrees,WindSpeedMPH,WindSpeedGustMPH,Humidity,HourlyPrecipIn,Conditions,Clouds,dailyrainin,SoftwareType,DateUTC
2013-02-05 00:01:00,12.1,7.9,29.99,ENE,67,1.0,1.0,83,0.00,,,0.00,Wunderground v.1.15,2013-02-05 06:01:00,
2013-02-05 00:06:00,12.3,8.1,29.99,ENE,67,2.0,2.0,83,0.00,,,0.00,Wunderground v.1.15,2013-02-05 06:06:00,
2013-02-05 00:11:00,12.3,7.9,29.98,ENE,67,2.0,3.0,82,0.00,,,0.00,Wunderground v.1.15,2013-02-05 06:11:00,
2013-02-05 00:17:00,12.3,7.9,29.98,ENE,67,2.0,4.0,82,0.00,,,0.00,Wunderground v.1.15,2013-02-05 06:17:00,
2013-02-05 00:22:00,12.4,7.7,29.98,ENE,67,2.0,2.0,81,0.00,,,0.00,Wunderground v.1.15,2013-02-05 06:22:00,
2013-02-05 00:27:00,12.4,8.0,29.97,ENE,67,2.0,4.0,82,0.00,,,0.00,Wunderground v.1.15,2013-02-05 06:27:00,
2013-02-05 00:33:00,12.5,7.5,29.97,ENE,67,2.0,3.0,80,0.00,,,0.00,Wunderground v.1.15,2013-02-05 06:33:00,
2013-02-05 00:40:00,12.6,7.3,29.97,ENE,67,2.0,3.0,79,0.00,,,0.00,Wunderground v.1.15,2013-02-05 06:40:00,
2013-02-05 00:46:00,12.6,7.3,29.97,ENE,67,2.0,3.0,79,0.00,,,0.00,Wunderground v.1.15,2013-02-05 06:46:00,
2013-02-05 00:51:00,12.6,7.0,29.97,ENE,67,2.0,3.0,78,0.00,,,0.00,Wunderground v.1.15,2013-02-05 06:51:00,
2013-02-05 00:57:00,12.3,6.7,29.98,ENE,67,2.0,3.0,78,0.00,,,0.00,Wunderground v.1.15,2013-02-05 06:57:00,
2013-02-05 01:03:00,12.1,6.6,29.98,ENE,67,2.0,2.0,78,0.00,,,0.00,Wunderground v.1.15,2013-02-05 07:03:00,
2013-02-05 01:10:00,12.1,6.6,29.98,ENE,67,0.0,2.0,78,0.00,,,0.00,Wunderground v.1.15,2013-02-05 07:10:00,
2013-02-05 01:16:00,12.1,6.6,29.98,ENE,67,0.0,2.0,78,0.00,,,0.00,Wunderground v.1.15,2013-02-05 07:16:00,
2013-02-05 01:21:00,12.1,6.3,29.98,ENE,67,1.0,1.0,77,0.00,,,0.00,Wunderground v.1.15,2013-02-05 07:21:00,
2013-02-05 01:27:00,12.1,6.3,29.98,ENE,67,2.0,3.0,77,0.00,,,0.00,Wunderground v.1.15,2013-02-05 07:27:00,
2013-02-05 01:33:00,12.0,5.9,29.98,ENE,67,2.0,2.0,76,0.00,,,0.00,Wunderground v.1.15,2013-02-05 07:33:00,
2013-02-05 01:40:00,11.9,5.8,29.98,ENE,67,1.0,2.0,76,0.00,,,0.00,Wunderground v.1.15,2013-02-05 07:40:00,
2013-02-05 01:45:00,11.9,5.8,29.97,ENE,67,1.0,2.0,76,0.00,,,0.00,Wunderground v.1.15,2013-02-05 07:45:00,
2013-02-05 01:50:00,11.8,6.0,29.97,ENE,67,1.0,3.0,77,0.00,,,0.00,Wunderground v.1.15,2013-02-05 07:50:00,
2013-02-05 01:56:00,11.7,6.2,29.96,ESE,121,2.0,3.0,78,0.00,,,0.00,Wunderground v.1.15,2013-02-05 07:56:00,
2013-02-05 02:01:00,11.6,6.3,29.96,SSE,161,2.0,2.0,79,0.00,,,0.00,Wunderground v.1.15,2013-02-05 08:01:00,
2013-02-05 02:06:00,11.9,6.6,29.95,SE,135,3.0,3.0,79,0.00,,,0.00,Wunderground v.1.15,2013-02-05 08:06:00,
2013-02-05 02:12:00,12.2,6.7,29.95,SE,138,3.0,3.0,78,0.00,,,0.00,Wunderground v.1.15,2013-02-05 08:12:00,
2013-02-05 02:18:00,12.3,7.0,29.95,SE,138,2.0,3.0,79,0.00,,,0.00,Wunderground v.1.15,2013-02-05 08:18:00,
2013-02-05 02:23:00,12.3,7.0,29.95,SE,138,2.0,3.0,79,0.00,,,0.00,Wunderground v.1.15,2013-02-05 08:23:00,
2013-02-05 02:30:00,12.4,6.6,29.96,SE,138,1.0,3.0,77,0.00,,,0.00,Wunderground v.1.15,2013-02-05 08:30:00,
2013-02-05 02:36:00,12.4,6.6,29.95,SE,138,2.0,4.0,77,0.00,,,0.00,Wunderground v.1.15,2013-02-05 08:36:00,
2013-02-05 02:41:00,12.2,6.4,29.95,SE,138,2.0,2.0,77,0.00,,,0.00,Wunderground v.1.15,2013-02-05 08:41:00,
2013-02-05 02:47:00,12.1,6.3,29.94,SSE,164,2.0,4.0,77,0.00,,,0.00,Wunderground v.1.15,2013-02-05 08:47:00,
2013-02-05 02:53:00,12.0,6.2,29.95,SSE,166,3.0,3.0,77,0.00,,,0.00,Wunderground v.1.15,2013-02-05 08:53:00,
2013-02-05 03:00:00,11.8,6.3,29.94,SSE,166,2.0,3.0,78,0.00,,,0.00,Wunderground v.1.15,2013-02-05 09:00:00,
2013-02-05 03:06:00,11.7,6.2,29.95,SSE,166,3.0,3.0,78,0.00,,,0.00,Wunderground v.1.15,2013-02-05 09:06:00,
2013-02-05 03:11:00,11.6,6.3,29.94,SSE,166,3.0,4.0,79,0.00,,,0.00,Wunderground v.1.15,2013-02-05 09:11:00,
2013-02-05 03:17:00,11.7,6.7,29.93,South,175,3.0,5.0,80,0.00,,,0.00,Wunderground v.1.15,2013-02-05 09:17:00,
2013-02-05 03:22:00,11.9,7.2,29.93,South,179,4.0,4.0,81,0.00,,,0.00,Wunderground v.1.15,2013-02-05 09:22:00,
2013-02-05 03:28:00,12.2,7.5,29.93,South,179,3.0,5.0,81,0.00,,,0.00,Wunderground v.1.15,2013-02-05 09:28:00,
2013-02-05 03:35:00,12.5,7.8,29.93,SSW,201,4.0,5.0,81,0.00,,,0.00,Wunderground v.1.15,2013-02-05 09:35:00,
2013-02-05 03:40:00,12.7,8.0,29.93,SSW,200,4.0,5.0,81,0.00,,,0.00,Wunderground v.1.15,2013-02-05 09:40:00,
2013-02-05 03:46:00,13.0,8.5,29.93,South,182,4.0,5.0,82,0.00,,,0.00,Wunderground v.1.15,2013-02-05 09:46:00,
2013-02-05 03:51:00,13.1,8.6,29.94,SSW,194,4.0,4.0,82,0.00,,,0.00,Wunderground v.1.15,2013-02-05 09:51:00,
2013-02-05 03:57:00,13.4,8.9,29.94,SSW,205,4.0,6.0,82,0.00,,,0.00,Wunderground v.1.15,2013-02-05 09:57:00,
2013-02-05 04:03:00,13.7,9.5,29.94,SW,215,4.0,8.0,83,0.00,,,0.00,Wunderground v.1.15,2013-02-05 10:03:00,
2013-02-05 04:10:00,14.0,9.8,29.95,SW,217,5.0,8.0,83,0.00,,,0.00,Wunderground v.1.15,2013-02-05 10:10:00,
2013-02-05 04:16:00,14.3,10.4,29.94,SW,221,5.0,9.0,84,0.00,,,0.00,Wunderground v.1.15,2013-02-05 10:16:00,
2013-02-05 04:21:00,14.5,10.8,29.94,South,184,5.0,6.0,85,0.00,,,0.00,Wunderground v.1.15,2013-02-05 10:21:00,
2013-02-05 04:26:00,14.7,11.0,29.94,South,187,5.0,9.0,85,0.00,,,0.00,Wunderground v.1.15,2013-02-05 10:26:00,
2013-02-05 04:31:00,14.9,11.5,29.94,South,191,6.0,6.0,86,0.00,,,0.00,Wunderground v.1.15,2013-02-05 10:31:00,
2013-02-05 04:36:00,15.1,11.7,29.94,SSW,200,6.0,7.0,86,0.00,,,0.00,Wunderground v.1.15,2013-02-05 10:36:00,
2013-02-05 04:42:00,15.2,11.8,29.94,South,187,6.0,6.0,86,0.00,,,0.00,Wunderground v.1.15,2013-02-05 10:42:00,
2013-02-05 04:47:00,15.4,12.0,29.94,South,183,6.0,9.0,86,0.00,,,0.00,Wunderground v.1.15,2013-02-05 10:47:00,
2013-02-05 04:52:00,15.5,12.3,29.94,South,184,7.0,8.0,87,0.00,,,0.00,Wunderground v.1.15,2013-02-05 10:52:00,
2013-02-05 04:57:00,15.6,12.4,29.93,South,188,6.0,8.0,87,0.00,,,0.00,Wunderground v.1.15,2013-02-05 10:57:00,
2013-02-05 05:03:00,15.6,12.7,29.93,SSW,196,5.0,7.0,88,0.00,,,0.00,Wunderground v.1.15,2013-02-05 11:03:00,
2013-02-05 05:10:00,15.7,13.0,29.92,South,169,5.0,8.0,89,0.00,,,0.00,Wunderground v.1.15,2013-02-05 11:10:00,
2013-02-05 05:16:00,15.7,13.0,29.91,South,171,6.0,9.0,89,0.00,,,0.00,Wunderground v.1.15,2013-02-05 11:16:00,
2013-02-05 05:22:00,15.8,13.4,29.91,South,182,6.0,6.0,90,0.00,,,0.00,Wunderground v.1.15,2013-02-05 11:22:00,
2013-02-05 05:28:00,15.9,13.7,29.91,South,184,5.0,6.0,91,0.00,,,0.00,Wunderground v.1.15,2013-02-05 11:28:00,
2013-02-05 05:35:00,16.1,13.9,29.91,SSE,150,6.0,7.0,91,0.00,,,0.00,Wunderground v.1.15,2013-02-05 11:35:00,
2013-02-05 05:41:00,16.3,14.1,29.91,South,182,6.0,6.0,91,0.00,,,0.00,Wunderground v.1.15,2013-02-05 11:41:00,
2013-02-05 05:46:00,16.5,14.3,29.91,SSW,193,6.0,8.0,91,0.00,,,0.00,Wunderground v.1.15,2013-02-05 11:46:00,
2013-02-05 05:51:00,16.7,14.5,29.91,SSW,193,6.0,7.0,91,0.00,,,0.00,Wunderground v.1.15,2013-02-05 11:51:00,
2013-02-05 05:57:00,17.0,15.1,29.91,SSW,212,6.0,8.0,92,0.00,,,0.00,Wunderground v.1.15,2013-02-05 11:57:00,
2013-02-05 06:03:00,17.2,15.3,29.91,South,184,7.0,7.0,92,0.00,,,0.00,Wunderground v.1.15,2013-02-05 12:03:00,
2013-02-05 06:08:00,17.4,15.5,29.91,SSW,209,6.0,7.0,92,0.00,,,0.00,Wunderground v.1.15,2013-02-05 12:08:00,
2013-02-05 06:15:00,17.5,15.6,29.90,South,177,6.0,8.0,92,0.00,,,0.00,Wunderground v.1.15,2013-02-05 12:15:00,
2013-02-05 06:21:00,17.7,15.8,29.91,SSW,206,5.0,5.0,92,0.00,,,0.00,Wunderground v.1.15,2013-02-05 12:21:00,
2013-02-05 06:26:00,17.8,15.9,29.91,SSW,196,4.0,5.0,92,0.00,,,0.00,Wunderground v.1.15,2013-02-05 12:26:00,
2013-02-05 06:31:00,18.0,16.1,29.91,SSW,198,3.0,5.0,92,0.00,,,0.00,Wunderground v.1.15,2013-02-05 12:31:00,
2013-02-05 06:37:00,17.9,16.0,29.91,SSW,198,4.0,5.0,92,0.00,,,0.00,Wunderground v.1.15,2013-02-05 12:37:00,
2013-02-05 06:43:00,17.9,16.0,29.91,SSW,198,4.0,5.0,92,0.00,,,0.00,Wunderground v.1.15,2013-02-05 12:43:00,
2013-02-05 06:50:00,17.9,16.0,29.91,SSW,194,4.0,6.0,92,0.00,,,0.00,Wunderground v.1.15,2013-02-05 12:50:00,
2013-02-05 06:56:00,17.9,16.0,29.90,South,186,4.0,6.0,92,0.00,,,0.00,Wunderground v.1.15,2013-02-05 12:56:00,
2013-02-05 07:01:00,17.8,15.9,29.89,South,190,5.0,8.0,92,0.00,,,0.00,Wunderground v.1.15,2013-02-05 13:01:00,
2013-02-05 07:06:00,17.9,16.0,29.89,South,182,6.0,9.0,92,0.00,,,0.00,Wunderground v.1.15,2013-02-05 13:06:00,
2013-02-05 07:12:00,18.1,16.4,29.89,SSW,195,7.0,11.0,93,0.00,,,0.00,Wunderground v.1.15,2013-02-05 13:12:00,
2013-02-05 07:18:00,18.3,16.4,29.89,South,182,8.0,11.0,92,0.00,,,0.00,Wunderground v.1.15,2013-02-05 13:18:00,
2013-02-05 07:23:00,18.4,16.5,29.89,South,187,7.0,9.0,92,0.00,,,0.00,Wunderground v.1.15,2013-02-05 13:23:00,
2013-02-05 07:30:00,18.6,16.7,29.89,WSW,238,7.0,9.0,92,0.00,,,0.00,Wunderground v.1.15,2013-02-05 13:30:00,
2013-02-05 07:36:00,18.9,17.0,29.88,South,190,8.0,12.0,92,0.00,,,0.00,Wunderground v.1.15,2013-02-05 13:36:00,
2013-02-05 07:41:00,19.4,17.5,29.88,SSW,199,8.0,9.0,92,0.00,,,0.00,Wunderground v.1.15,2013-02-05 13:41:00,
2013-02-05 07:47:00,19.9,18.0,29.88,South,181,7.0,10.0,92,0.00,,,0.00,Wunderground v.1.15,2013-02-05 13:47:00,
2013-02-05 07:53:00,20.2,18.2,29.88,SW,230,7.0,10.0,92,0.00,,,0.00,Wunderground v.1.15,2013-02-05 13:53:00,
2013-02-05 08:00:00,20.5,18.3,29.88,South,172,7.0,10.0,91,0.00,,,0.00,Wunderground v.1.15,2013-02-05 14:00:00,
2013-02-05 08:06:00,20.7,18.7,29.88,South,189,7.0,10.0,92,0.00,,,0.00,Wunderground v.1.15,2013-02-05 14:06:00,
2013-02-05 08:11:00,20.8,18.8,29.88,South,183,7.0,12.0,92,0.00,,,0.00,Wunderground v.1.15,2013-02-05 14:11:00,
2013-02-05 08:17:00,21.1,18.9,29.88,South,183,8.0,12.0,91,0.00,,,0.00,Wunderground v.1.15,2013-02-05 14:17:00,
2013-02-05 08:22:00,21.3,19.3,29.87,SW,216,9.0,12.0,92,0.00,,,0.00,Wunderground v.1.15,2013-02-05 14:22:00,
2013-02-05 08:28:00,21.5,19.3,29.87,SSW,194,9.0,13.0,91,0.00,,,0.00,Wunderground v.1.15,2013-02-05 14:28:00,
2013-02-05 08:33:00,21.7,19.5,29.87,SSW,192,9.0,11.0,91,0.00,,,0.00,Wunderground v.1.15,2013-02-05 14:33:00,
2013-02-05 08:40:00,22.0,19.8,29.87,South,190,10.0,16.0,91,0.00,,,0.00,Wunderground v.1.15,2013-02-05 14:40:00,
2013-02-05 08:46:00,22.3,20.1,29.87,South,185,10.0,12.0,91,0.00,,,0.00,Wunderground v.1.15,2013-02-05 14:46:00,
2013-02-05 08:51:00,22.6,20.4,29.87,SSW,200,10.0,10.0,91,0.00,,,0.00,Wunderground v.1.15,2013-02-05 14:51:00,
2013-02-05 08:57:00,22.8,20.6,29.87,SSW,209,9.0,10.0,91,0.00,,,0.00,Wunderground v.1.15,2013-02-05 14:57:00,
2013-02-05 09:03:00,23.2,21.0,29.87,SW,222,9.0,10.0,91,0.00,,,0.00,Wunderground v.1.15,2013-02-05 15:03:00,
2013-02-05 09:10:00,23.6,21.4,29.86,SSW,196,10.0,14.0,91,0.00,,,0.00,Wunderground v.1.15,2013-02-05 15:10:00,
2013-02-05 09:16:00,24.4,22.2,29.86,SW,221,10.0,14.0,91,0.00,,,0.00,Wunderground v.1.15,2013-02-05 15:16:00,
2013-02-05 09:21:00,24.9,22.4,29.86,South,176,11.0,11.0,90,0.00,,,0.00,Wunderground v.1.15,2013-02-05 15:21:00,
2013-02-05 09:26:00,25.0,22.2,29.86,SSW,205,11.0,20.0,89,0.00,,,0.00,Wunderground v.1.15,2013-02-05 15:26:00,
2013-02-05 09:31:00,25.4,22.9,29.85,SSW,207,12.0,18.0,90,0.00,,,0.00,Wunderground v.1.15,2013-02-05 15:31:00,
2013-02-05 09:37:00,25.7,22.9,29.86,SW,229,13.0,18.0,89,0.00,,,0.00,Wunderground v.1.15,2013-02-05 15:37:00,
2013-02-05 09:42:00,25.8,23.0,29.85,South,184,12.0,14.0,89,0.00,,,0.00,Wunderground v.1.15,2013-02-05 15:42:00,
2013-02-05 09:48:00,26.0,23.2,29.85,SW,223,11.0,16.0,89,0.00,,,0.00,Wunderground v.1.15,2013-02-05 15:48:00,
2013-02-05 09:55:00,26.0,22.9,29.85,SSW,208,13.0,16.0,88,0.00,,,0.00,Wunderground v.1.15,2013-02-05 15:55:00,
2013-02-05 10:01:00,26.1,23.3,29.85,SSW,200,12.0,12.0,89,0.00,,,0.00,Wunderground v.1.15,2013-02-05 16:01:00,
2013-02-05 10:06:00,26.3,23.5,29.86,WSW,239,11.0,19.0,89,0.00,,,0.00,Wunderground v.1.15,2013-02-05 16:06:00,
2013-02-05 10:11:00,26.5,23.7,29.85,SW,236,12.0,12.0,89,0.00,,,0.00,Wunderground v.1.15,2013-02-05 16:11:00,
2013-02-05 10:17:00,26.6,23.5,29.86,West,277,12.0,18.0,88,0.00,,,0.00,Wunderground v.1.15,2013-02-05 16:17:00,
2013-02-05 10:23:00,26.6,23.8,29.85,SW,222,12.0,13.0,89,0.00,,,0.00,Wunderground v.1.15,2013-02-05 16:23:00,
2013-02-05 10:28:00,26.9,24.1,29.85,SW,231,12.0,20.0,89,0.00,,,0.00,Wunderground v.1.15,2013-02-05 16:28:00,
2013-02-05 10:35:00,26.9,24.1,29.86,West,264,13.0,16.0,89,0.00,,,0.00,Wunderground v.1.15,2013-02-05 16:35:00,
2013-02-05 10:40:00,27.1,24.3,29.86,West,272,11.0,16.0,89,0.00,,,0.00,Wunderground v.1.15,2013-02-05 16:40:00,
2013-02-05 10:46:00,27.2,24.4,29.86,SW,224,11.0,14.0,89,0.00,,,0.00,Wunderground v.1.15,2013-02-05 16:46:00,
2013-02-05 10:51:00,27.3,24.5,29.86,WSW,253,11.0,14.0,89,0.00,,,0.00,Wunderground v.1.15,2013-02-05 16:51:00,
2013-02-05 10:56:00,27.4,24.6,29.86,WSW,247,11.0,14.0,89,0.00,,,0.00,Wunderground v.1.15,2013-02-05 16:56:00,
2013-02-05 11:01:00,27.6,24.8,29.86,SW,221,11.0,14.0,89,0.00,,,0.00,Wunderground v.1.15,2013-02-05 17:01:00,
2013-02-05 11:07:00,27.8,25.0,29.86,SW,227,11.0,14.0,89,0.00,,,0.00,Wunderground v.1.15,2013-02-05 17:07:00,
2013-02-05 11:13:00,28.0,24.9,29.86,WNW,296,11.0,16.0,88,0.00,,,0.00,Wunderground v.1.15,2013-02-05 17:13:00,
2013-02-05 11:18:00,28.1,25.0,29.86,WSW,246,10.0,16.0,88,0.00,,,0.00,Wunderground v.1.15,2013-02-05 17:18:00,
2013-02-05 11:25:00,28.2,25.1,29.86,SSW,205,9.0,13.0,88,0.00,,,0.00,Wunderground v.1.15,2013-02-05 17:25:00,
2013-02-05 11:31:00,28.3,25.2,29.86,WSW,255,9.0,9.0,88,0.00,,,0.00,Wunderground v.1.15,2013-02-05 17:31:00,
2013-02-05 11:36:00,28.6,25.8,29.86,WSW,239,8.0,9.0,89,0.00,,,0.00,Wunderground v.1.15,2013-02-05 17:36:00,
2013-02-05 11:41:00,28.7,25.6,29.86,West,268,7.0,10.0,88,0.00,,,0.00,Wunderground v.1.15,2013-02-05 17:41:00,
2013-02-05 11:46:00,28.9,25.8,29.85,West,265,7.0,12.0,88,0.00,,,0.00,Wunderground v.1.15,2013-02-05 17:46:00,
2013-02-05 11:52:00,29.2,25.8,29.85,WSW,246,7.0,9.0,87,0.00,,,0.00,Wunderground v.1.15,2013-02-05 17:52:00,
2013-02-05 11:57:00,29.4,26.0,29.85,West,265,7.0,12.0,87,0.00,,,0.00,Wunderground v.1.15,2013-02-05 17:57:00,
2013-02-05 12:02:00,29.6,25.9,29.85,West,275,8.0,12.0,86,0.00,,,0.00,Wunderground v.1.15,2013-02-05 18:02:00,
2013-02-05 12:08:00,29.7,26.0,29.84,SW,223,9.0,14.0,86,0.00,,,0.00,Wunderground v.1.15,2013-02-05 18:08:00,
2013-02-05 12:13:00,29.8,26.1,29.84,WSW,242,10.0,12.0,86,0.00,,,0.00,Wunderground v.1.15,2013-02-05 18:13:00,
2013-02-05 12:20:00,30.0,26.3,29.84,NNE,18,9.0,13.0,86,0.00,,,0.00,Wunderground v.1.15,2013-02-05 18:20:00,
2013-02-05 12:26:00,30.1,26.4,29.85,West,277,9.0,11.0,86,0.00,,,0.00,Wunderground v.1.15,2013-02-05 18:26:00,
2013-02-05 12:31:00,30.2,26.2,29.84,West,263,10.0,10.0,85,0.00,,,0.00,Wunderground v.1.15,2013-02-05 18:31:00,
2013-02-05 12:37:00,30.4,26.4,29.84,SW,219,9.0,12.0,85,0.00,,,0.00,Wunderground v.1.15,2013-02-05 18:37:00,
2013-02-05 12:43:00,30.2,26.5,29.84,West,259,8.0,15.0,86,0.00,,,0.00,Wunderground v.1.15,2013-02-05 18:43:00,
2013-02-05 12:48:00,30.2,26.5,29.85,WSW,248,8.0,15.0,86,0.00,,,0.00,Wunderground v.1.15,2013-02-05 18:48:00,
2013-02-05 12:55:00,30.1,26.7,29.86,WNW,285,7.0,8.0,87,0.00,,,0.00,Wunderground v.1.15,2013-02-05 18:55:00,
2013-02-05 13:01:00,29.9,26.5,29.86,SW,234,8.0,8.0,87,0.00,,,0.00,Wunderground v.1.15,2013-02-05 19:01:00,
2013-02-05 13:06:00,29.8,26.4,29.85,WNW,300,8.0,19.0,87,0.00,,,0.00,Wunderground v.1.15,2013-02-05 19:06:00,
2013-02-05 13:11:00,29.9,26.8,29.85,WNW,282,8.0,9.0,88,0.00,,,0.00,Wunderground v.1.15,2013-02-05 19:11:00,
2013-02-05 13:16:00,30.2,27.1,29.85,WNW,300,7.0,9.0,88,0.00,,,0.00,Wunderground v.1.15,2013-02-05 19:16:00,
2013-02-05 13:22:00,30.3,26.9,29.85,SW,229,7.0,12.0,87,0.00,,,0.00,Wunderground v.1.15,2013-02-05 19:22:00,
2013-02-05 13:28:00,30.2,26.8,29.86,West,269,9.0,15.0,87,0.00,,,0.00,Wunderground v.1.15,2013-02-05 19:28:00,
2013-02-05 13:33:00,30.1,26.7,29.86,West,270,9.0,12.0,87,0.00,,,0.00,Wunderground v.1.15,2013-02-05 19:33:00,
2013-02-05 13:40:00,30.3,26.9,29.86,West,268,8.0,12.0,87,0.00,,,0.00,Wunderground v.1.15,2013-02-05 19:40:00,
2013-02-05 13:46:00,30.2,26.8,29.85,West,265,8.0,9.0,87,0.00,,,0.00,Wunderground v.1.15,2013-02-05 19:46:00,
2013-02-05 13:51:00,30.3,27.2,29.85,West,270,7.0,7.0,88,0.00,,,0.00,Wunderground v.1.15,2013-02-05 19:51:00,
2013-02-05 13:57:00,30.6,27.5,29.86,West,262,7.0,8.0,88,0.00,,,0.00,Wunderground v.1.15,2013-02-05 19:57:00,
2013-02-05 14:03:00,30.4,27.0,29.86,WNW,289,7.0,9.0,87,0.00,,,0.00,Wunderground v.1.15,2013-02-05 20:03:00,
2013-02-05 14:10:00,30.1,27.0,29.86,West,265,7.0,13.0,88,0.00,,,0.00,Wunderground v.1.15,2013-02-05 20:10:00,
2013-02-05 14:16:00,29.9,27.3,29.86,NW,313,8.0,12.0,90,0.00,,,0.00,Wunderground v.1.15,2013-02-05 20:16:00,
2013-02-05 14:21:00,29.6,27.3,29.87,West,281,8.0,12.0,91,0.00,,,0.00,Wunderground v.1.15,2013-02-05 20:21:00,
2013-02-05 14:26:00,29.4,27.6,29.87,West,273,8.0,10.0,93,0.00,,,0.00,Wunderground v.1.15,2013-02-05 20:26:00,
2013-02-05 14:32:00,29.7,28.2,29.87,WSW,241,6.0,6.0,94,0.00,,,0.00,Wunderground v.1.15,2013-02-05 20:32:00,
2013-02-05 14:37:00,29.6,28.1,29.88,WNW,293,7.0,14.0,94,0.00,,,0.00,Wunderground v.1.15,2013-02-05 20:37:00,
2013-02-05 14:43:00,29.7,28.2,29.88,West,279,8.0,8.0,94,0.00,,,0.00,Wunderground v.1.15,2013-02-05 20:43:00,
2013-02-05 14:48:00,29.8,28.3,29.88,West,261,6.0,8.0,94,0.00,,,0.00,Wunderground v.1.15,2013-02-05 20:48:00,
2013-02-05 14:55:00,29.9,28.1,29.89,WNW,286,6.0,9.0,93,0.00,,,0.00,Wunderground v.1.15,2013-02-05 20:55:00,
2013-02-05 15:01:00,29.8,27.8,29.89,SW,232,7.0,12.0,92,0.00,,,0.00,Wunderground v.1.15,2013-02-05 21:01:00,
2013-02-05 15:06:00,30.0,28.0,29.90,West,279,8.0,12.0,92,0.00,,,0.00,Wunderground v.1.15,2013-02-05 21:06:00,
2013-02-05 15:12:00,29.9,27.9,29.90,West,278,9.0,15.0,92,0.00,,,0.00,Wunderground v.1.15,2013-02-05 21:12:00,
2013-02-05 15:18:00,30.0,28.2,29.91,WSW,258,10.0,17.0,93,0.00,,,0.00,Wunderground v.1.15,2013-02-05 21:18:00,
2013-02-05 15:23:00,30.0,28.0,29.91,West,271,11.0,15.0,92,0.00,,,0.00,Wunderground v.1.15,2013-02-05 21:23:00,
2013-02-05 15:28:00,30.0,28.0,29.92,West,276,12.0,18.0,92,0.00,,,0.00,Wunderground v.1.15,2013-02-05 21:28:00,
2013-02-05 15:33:00,29.9,27.9,29.92,West,281,11.0,13.0,92,0.00,,,0.00,Wunderground v.1.15,2013-02-05 21:33:00,
2013-02-05 15:40:00,29.9,28.1,29.92,WNW,287,10.0,13.0,93,0.00,,,0.00,Wunderground v.1.15,2013-02-05 21:40:00,
2013-02-05 15:45:00,29.9,28.1,29.92,WNW,286,9.0,15.0,93,0.00,,,0.00,Wunderground v.1.15,2013-02-05 21:45:00,
2013-02-05 15:51:00,29.9,28.1,29.92,WNW,289,10.0,15.0,93,0.00,,,0.00,Wunderground v.1.15,2013-02-05 21:51:00,
2013-02-05 15:56:00,29.9,28.1,29.92,WNW,283,11.0,15.0,93,0.00,,,0.00,Wunderground v.1.15,2013-02-05 21:56:00,
2013-02-05 16:01:00,29.9,27.9,29.93,WNW,284,11.0,11.0,92,0.00,,,0.00,Wunderground v.1.15,2013-02-05 22:01:00,
2013-02-05 16:06:00,29.9,27.6,29.93,NW,307,12.0,18.0,91,0.00,,,0.00,Wunderground v.1.15,2013-02-05 22:06:00,
2013-02-05 16:12:00,29.8,27.2,29.94,NNW,330,12.0,18.0,90,0.00,,,0.00,Wunderground v.1.15,2013-02-05 22:12:00,
2013-02-05 16:18:00,29.8,27.2,29.95,NW,312,13.0,18.0,90,0.00,,,0.00,Wunderground v.1.15,2013-02-05 22:18:00,
2013-02-05 16:25:00,29.8,27.0,29.95,NNW,339,13.0,20.0,89,0.00,,,0.00,Wunderground v.1.15,2013-02-05 22:25:00,
2013-02-05 16:31:00,29.6,26.8,29.95,WNW,288,15.0,15.0,89,0.00,,,0.00,Wunderground v.1.15,2013-02-05 22:31:00,
2013-02-05 16:36:00,29.5,26.7,29.96,NW,304,14.0,16.0,89,0.00,,,0.00,Wunderground v.1.15,2013-02-05 22:36:00,
2013-02-05 16:41:00,29.4,26.6,29.96,NW,309,14.0,18.0,89,0.00,,,0.00,Wunderground v.1.15,2013-02-05 22:41:00,
2013-02-05 16:47:00,29.4,26.6,29.96,WNW,300,13.0,18.0,89,0.00,,,0.00,Wunderground v.1.15,2013-02-05 22:47:00,
2013-02-05 16:53:00,29.5,26.7,29.96,WNW,291,12.0,18.0,89,0.00,,,0.00,Wunderground v.1.15,2013-02-05 22:53:00,
2013-02-05 16:58:00,29.5,26.7,29.97,NW,312,11.0,18.0,89,0.00,,,0.00,Wunderground v.1.15,2013-02-05 22:58:00,
2013-02-05 17:05:00,29.5,26.7,29.97,NW,305,9.0,12.0,89,0.00,,,0.00,Wunderground v.1.15,2013-02-05 23:05:00,
2013-02-05 17:10:00,29.5,26.7,29.97,WNW,288,10.0,13.0,89,0.00,,,0.00,Wunderground v.1.15,2013-02-05 23:10:00,
2013-02-05 17:16:00,29.6,26.8,29.97,WNW,287,10.0,10.0,89,0.00,,,0.00,Wunderground v.1.15,2013-02-05 23:16:00,
2013-02-05 17:21:00,29.6,26.8,29.97,West,279,10.0,10.0,89,0.00,,,0.00,Wunderground v.1.15,2013-02-05 23:21:00,
2013-02-05 17:26:00,29.6,26.8,29.97,WNW,287,9.0,10.0,89,0.00,,,0.00,Wunderground v.1.15,2013-02-05 23:26:00,
2013-02-05 17:31:00,29.6,26.8,29.98,WNW,284,9.0,9.0,89,0.00,,,0.00,Wunderground v.1.15,2013-02-05 23:31:00,
2013-02-05 17:37:00,29.5,26.9,29.98,West,273,8.0,9.0,90,0.00,,,0.00,Wunderground v.1.15,2013-02-05 23:37:00,
2013-02-05 17:43:00,29.6,27.0,29.98,West,274,6.0,7.0,90,0.00,,,0.00,Wunderground v.1.15,2013-02-05 23:43:00,
2013-02-05 17:50:00,29.6,27.0,29.99,West,267,5.0,7.0,90,0.00,,,0.00,Wunderground v.1.15,2013-02-05 23:50:00,
2013-02-05 17:56:00,29.6,27.0,29.99,West,268,4.0,5.0,90,0.00,,,0.00,Wunderground v.1.15,2013-02-05 23:56:00,
2013-02-05 18:01:00,29.6,27.0,30.00,West,273,4.0,4.0,90,0.00,,,0.00,Wunderground v.1.15,2013-02-06 00:01:00,
2013-02-05 18:06:00,29.6,27.0,30.00,WNW,296,3.0,4.0,90,0.00,,,0.00,Wunderground v.1.15,2013-02-06 00:06:00,
2013-02-05 18:11:00,29.6,27.0,30.00,WNW,296,2.0,2.0,90,0.00,,,0.00,Wunderground v.1.15,2013-02-06 00:11:00,
2013-02-05 18:17:00,29.6,27.0,30.00,WNW,296,1.0,3.0,90,0.00,,,0.00,Wunderground v.1.15,2013-02-06 00:17:00,
2013-02-05 18:23:00,29.6,27.3,30.00,WNW,296,1.0,3.0,91,0.00,,,0.00,Wunderground v.1.15,2013-02-06 00:23:00,
2013-02-05 18:30:00,29.6,27.3,30.01,WNW,296,1.0,3.0,91,0.00,,,0.00,Wunderground v.1.15,2013-02-06 00:30:00,
2013-02-05 18:35:00,29.6,27.3,30.01,WNW,296,1.0,2.0,91,0.00,,,0.00,Wunderground v.1.15,2013-02-06 00:35:00,
2013-02-05 18:40:00,29.6,27.3,30.01,WNW,296,2.0,4.0,91,0.00,,,0.00,Wunderground v.1.15,2013-02-06 00:40:00,
2013-02-05 18:46:00,29.7,27.4,30.01,WNW,296,3.0,4.0,91,0.00,,,0.00,Wunderground v.1.15,2013-02-06 00:46:00,
2013-02-05 18:51:00,29.7,27.4,30.01,West,281,3.0,4.0,91,0.00,,,0.00,Wunderground v.1.15,2013-02-06 00:51:00,
2013-02-05 18:57:00,29.8,27.5,30.02,West,259,3.0,5.0,91,0.00,,,0.00,Wunderground v.1.15,2013-02-06 00:57:00,
2013-02-05 19:02:00,30.0,27.4,30.01,West,263,4.0,9.0,90,0.00,,,0.00,Wunderground v.1.15,2013-02-06 01:02:00,
2013-02-05 19:08:00,30.3,27.4,30.02,WNW,292,6.0,9.0,89,0.00,,,0.00,Wunderground v.1.15,2013-02-06 01:08:00,
2013-02-05 19:15:00,30.6,27.5,30.02,West,262,6.0,7.0,88,0.00,,,0.00,Wunderground v.1.15,2013-02-06 01:15:00,
2013-02-05 19:21:00,30.6,27.5,30.02,WNW,298,4.0,4.0,88,0.00,,,0.00,Wunderground v.1.15,2013-02-06 01:21:00,
2013-02-05 19:26:00,30.5,27.6,30.02,WNW,292,4.0,5.0,89,0.00,,,0.00,Wunderground v.1.15,2013-02-06 01:26:00,
2013-02-05 19:31:00,30.5,27.6,30.03,West,272,4.0,8.0,89,0.00,,,0.00,Wunderground v.1.15,2013-02-06 01:31:00,
2013-02-05 19:37:00,30.5,27.6,30.03,NW,311,6.0,8.0,89,0.00,,,0.00,Wunderground v.1.15,2013-02-06 01:37:00,
2013-02-05 19:42:00,30.6,27.7,30.03,WNW,293,6.0,6.0,89,0.00,,,0.00,Wunderground v.1.15,2013-02-06 01:42:00,
2013-02-05 19:48:00,30.5,27.6,30.03,WNW,294,5.0,6.0,89,0.00,,,0.00,Wunderground v.1.15,2013-02-06 01:48:00,
2013-02-05 19:53:00,30.5,27.6,30.03,WNW,298,4.0,6.0,89,0.00,,,0.00,Wunderground v.1.15,2013-02-06 01:53:00,
2013-02-05 20:00:00,30.5,27.6,30.04,WNW,298,4.0,6.0,89,0.00,,,0.00,Wunderground v.1.15,2013-02-06 02:00:00,
2013-02-05 20:06:00,30.5,27.6,30.04,NW,325,4.0,4.0,89,0.00,,,0.00,Wunderground v.1.15,2013-02-06 02:06:00,
2013-02-05 20:11:00,30.5,27.4,30.04,NW,326,4.0,5.0,88,0.00,,,0.00,Wunderground v.1.15,2013-02-06 02:11:00,
2013-02-05 20:17:00,30.6,27.5,30.04,NNW,327,6.0,6.0,88,0.00,,,0.00,Wunderground v.1.15,2013-02-06 02:17:00,
2013-02-05 20:23:00,30.7,27.3,30.04,NNW,327,6.0,6.0,87,0.00,,,0.00,Wunderground v.1.15,2013-02-06 02:23:00,
2013-02-05 20:28:00,30.7,27.6,30.05,NW,316,5.0,6.0,88,0.00,,,0.00,Wunderground v.1.15,2013-02-06 02:28:00,
2013-02-05 20:33:00,30.6,27.5,30.05,WNW,302,4.0,5.0,88,0.00,,,0.00,Wunderground v.1.15,2013-02-06 02:33:00,
2013-02-05 20:40:00,30.6,27.2,30.05,WNW,302,4.0,7.0,87,0.00,,,0.00,Wunderground v.1.15,2013-02-06 02:40:00,
2013-02-05 20:46:00,30.6,26.6,30.05,West,281,5.0,9.0,85,0.00,,,0.00,Wunderground v.1.15,2013-02-06 02:46:00,
2013-02-05 20:51:00,30.5,26.2,30.06,NNW,330,7.0,10.0,84,0.00,,,0.00,Wunderground v.1.15,2013-02-06 02:51:00,
2013-02-05 20:57:00,30.5,25.7,30.06,WNW,296,8.0,11.0,82,0.00,,,0.00,Wunderground v.1.15,2013-02-06 02:57:00,
2013-02-05 21:03:00,30.5,25.4,30.06,NW,321,9.0,9.0,81,0.00,,,0.00,Wunderground v.1.15,2013-02-06 03:03:00,
2013-02-05 21:08:00,30.2,25.7,30.06,NW,317,8.0,11.0,83,0.00,,,0.00,Wunderground v.1.15,2013-02-06 03:08:00,
2013-02-05 21:14:00,30.1,25.6,30.06,NW,316,6.0,7.0,83,0.00,,,0.00,Wunderground v.1.15,2013-02-06 03:14:00,
2013-02-05 21:20:00,29.9,25.7,30.07,NW,323,5.0,7.0,84,0.00,,,0.00,Wunderground v.1.15,2013-02-06 03:20:00,
2013-02-05 21:25:00,29.9,25.4,30.07,WNW,302,5.0,6.0,83,0.00,,,0.00,Wunderground v.1.15,2013-02-06 03:25:00,
2013-02-05 21:30:00,29.7,25.5,30.07,NW,313,4.0,6.0,84,0.00,,,0.00,Wunderground v.1.15,2013-02-06 03:30:00,
2013-02-05 21:36:00,29.8,27.0,30.08,NW,321,5.0,7.0,89,0.00,,,0.00,Wunderground v.1.15,2013-02-06 03:36:00,
2013-02-05 21:41:00,29.7,25.2,30.08,NW,317,6.0,6.0,83,0.00,,,0.00,Wunderground v.1.15,2013-02-06 03:41:00,
2013-02-05 21:46:00,29.6,25.1,30.08,WSW,245,6.0,7.0,83,0.00,,,0.00,Wunderground v.1.15,2013-02-06 03:46:00,
2013-02-05 21:52:00,29.6,25.1,30.08,WNW,285,5.0,6.0,83,0.00,,,0.00,Wunderground v.1.15,2013-02-06 03:52:00,
2013-02-05 21:57:00,29.5,25.0,30.08,WNW,287,5.0,7.0,83,0.00,,,0.00,Wunderground v.1.15,2013-02-06 03:57:00,
2013-02-05 22:03:00,29.4,24.9,30.09,WNW,294,5.0,8.0,83,0.00,,,0.00,Wunderground v.1.15,2013-02-06 04:03:00,
2013-02-05 22:10:00,29.3,24.8,30.09,WNW,288,6.0,8.0,83,0.00,,,0.00,Wunderground v.1.15,2013-02-06 04:10:00,
2013-02-05 22:16:00,29.3,24.5,30.09,NW,304,6.0,7.0,82,0.00,,,0.00,Wunderground v.1.15,2013-02-06 04:16:00,
2013-02-05 22:21:00,29.3,24.5,30.09,NW,317,6.0,8.0,82,0.00,,,0.00,Wunderground v.1.15,2013-02-06 04:21:00,
2013-02-05 22:26:00,29.3,24.5,30.09,NW,312,7.0,8.0,82,0.00,,,0.00,Wunderground v.1.15,2013-02-06 04:26:00,
2013-02-05 22:32:00,29.2,24.4,30.09,NW,318,5.0,6.0,82,0.00,,,0.00,Wunderground v.1.15,2013-02-06 04:32:00,
2013-02-05 22:37:00,29.2,24.4,30.09,NW,319,5.0,7.0,82,0.00,,,0.00,Wunderground v.1.15,2013-02-06 04:37:00,
2013-02-05 22:43:00,29.2,24.4,30.09,NW,304,6.0,6.0,82,0.00,,,0.00,Wunderground v.1.15,2013-02-06 04:43:00,
2013-02-05 22:48:00,29.2,24.4,30.10,NW,311,7.0,7.0,82,0.00,,,0.00,Wunderground v.1.15,2013-02-06 04:48:00,
2013-02-05 22:55:00,29.1,24.6,30.10,NW,315,6.0,8.0,83,0.00,,,0.00,Wunderground v.1.15,2013-02-06 04:55:00,
2013-02-05 23:00:00,29.0,24.5,30.10,WNW,299,6.0,8.0,83,0.00,,,0.00,Wunderground v.1.15,2013-02-06 05:00:00,
2013-02-05 23:01:00,28.9,24.4,30.10,WNW,297,6.0,6.0,83,0.00,,,0.00,Wunderground v.1.15,2013-02-06 05:01:00,
2013-02-05 23:07:00,28.8,24.6,30.10,WNW,294,4.0,7.0,84,0.00,,,0.00,Wunderground v.1.15,2013-02-06 05:07:00,
2013-02-05 23:12:00,28.8,24.6,30.11,WNW,290,4.0,5.0,84,0.00,,,0.00,Wunderground v.1.15,2013-02-06 05:12:00,
2013-02-05 23:17:00,28.8,24.6,30.11,WNW,302,4.0,5.0,84,0.00,,,0.00,Wunderground v.1.15,2013-02-06 05:17:00,
2013-02-05 23:23:00,28.9,24.7,30.11,WNW,298,4.0,5.0,84,0.00,,,0.00,Wunderground v.1.15,2013-02-06 05:23:00,
2013-02-05 23:28:00,28.9,24.7,30.12,WNW,283,4.0,5.0,84,0.00,,,0.00,Wunderground v.1.15,2013-02-06 05:28:00,
2013-02-05 23:35:00,28.8,24.6,30.11,NW,318,3.0,4.0,84,0.00,,,0.00,Wunderground v.1.15,2013-02-06 05:35:00,
2013-02-05 23:41:00,28.7,24.5,30.12,NW,326,3.0,5.0,84,0.00,,,0.00,Wunderground v.1.15,2013-02-06 05:41:00,
2013-02-05 23:46:00,28.7,24.5,30.12,NW,326,3.0,3.0,84,0.00,,,0.00,Wunderground v.1.15,2013-02-06 05:46:00,
2013-02-05 23:51:00,28.7,24.5,30.13,NW,326,3.0,3.0,84,0.00,,,0.00,Wunderground v.1.15,2013-02-06 05:51:00,
2013-02-05 23:56:00,28.7,24.5,30.14,NW,321,3.0,4.0,84,0.00,,,0.00,Wunderground v.1.15,2013-02-06 05:56:00,